Startpagina
METAR-TAF:

METAR-TAF

Vliegvelden :

Aéroport de Tarbes-Lourdes-Pyrénées

Tarbes Lourdes, Frankrijk

breedte: 43-11N, lengte: 000-00W, hoogte: 379 m

Actueel weer

Dit bericht is 35 minuten geleden gemaakt, om 04:00 UTC
Wind 4 kt uit het zuidzuidwesten
Temperatuur 17°C
Vochtigheid 100%
Druk 1018 hPa
Zicht: 8000 m

METAR: LFBT 260400Z AUTO 21004KT 8000 NSC 17/17 Q1018 TEMPO BKN004

Tijdstip: 06:35 (04:35 UTC)

Verwachting

Dit bericht is 5 uur en het 35 minuten geleden gemaakt, om 23:00 UTC
Verwachting geldig van 26 om 00 UTC tot 26 om 24 UTC
Wind 8 kt uit het westzuidwesten
Zicht 10 km of meer
geen wolken onder 1500 m en geen cumulonimbus
Kans 40%
van 26 om 00 UTC tot 26 om 07 UTC
Gebroken wolken op 400 ft
Wijzigt naar
van 26 om 21 UTC tot 26 om 23 UTC
Wind 10 kt uit het westen
Gebroken wolken op 1200 ft

TAF: LFBT 252300Z 2600/2624 24008KT CAVOK PROB40 2600/2607 BKN004 BECMG 2621/2623 27010KT BKN012

Waarnemingen en weersverwachtingen van meer dan 4000 vliegvelden (METAR en TAF).

De beschikbare stations zijn de gele en rode punten op de kaart.

Ga met uw muis naar het station om de naam te zien.

Klik dan om waarnemingen en weersverwachtingen te zien.

kaart wijzigen: klik op de groene knoppen met een zwart kruis om in te zoomen, op de groene knop met een streepje om uit te zoomen of op de groene pijlen voor aangrenzende kaarten.


METAR-TAF: